Time;durP1;ratioP1;P1;durP2;ratioP2;P2;SDS_P1;SDS_P2;PMS_P1;PMS_P2;Temp;Humidity;BMP_temperature;BMP_pressure;BME280_temperature;BME280_humidity;BME280_pressure;Samples;Min_cycle;Max_cycle;Signal;HPM_P1;HPM_P2
2022/06/18 00:02:18;;;;;;;26.80;25.30;;;20.50;64.30;;;;;;4973163;28;21100;-69
2022/06/18 00:04:46;;;;;;;26.00;24.60;;;20.50;64.00;;;;;;4968935;28;20462;-69
2022/06/18 00:07:17;;;;;;;25.63;24.23;;;20.50;64.00;;;;;;4972570;28;20487;-69
2022/06/18 00:09:46;;;;;;;25.60;24.20;;;20.50;64.10;;;;;;4969008;28;20558;-69
2022/06/18 00:15:03;;;;;;;27.03;25.33;;;20.50;64.50;;;;;;4971930;28;20446;-69
2022/06/18 00:17:31;;;;;;;26.10;24.60;;;20.40;64.70;;;;;;4974021;28;20474;-69
2022/06/18 00:19:59;;;;;;;26.93;25.17;;;20.40;64.70;;;;;;4968245;28;20537;-69
2022/06/18 00:22:26;;;;;;;26.03;24.53;;;20.40;64.80;;;;;;4974503;28;20549;-69
2022/06/18 00:24:53;;;;;;;26.30;24.87;;;20.40;64.50;;;;;;4969706;28;20462;-71
2022/06/18 00:27:21;;;;;;;26.77;25.37;;;20.30;64.50;;;;;;4971883;28;20479;-71
2022/06/18 00:29:50;;;;;;;26.93;25.30;;;20.30;64.90;;;;;;4972644;28;21004;-71
2022/06/18 00:32:17;;;;;;;26.50;25.00;;;20.30;64.60;;;;;;4970472;28;20551;-71
2022/06/18 00:34:45;;;;;;;26.40;25.00;;;20.20;65.00;;;;;;4971456;28;20870;-72
2022/06/18 00:37:16;;;;;;;26.80;25.30;;;20.20;64.60;;;;;;4966875;28;20559;-71
2022/06/18 00:39:44;;;;;;;26.40;24.90;;;20.20;64.70;;;;;;4966898;28;20475;-71
2022/06/18 00:42:26;;;;;;;25.90;24.60;;;20.20;64.40;;;;;;4973031;28;20523;-71
2022/06/18 00:44:58;;;;;;;26.13;24.77;;;20.30;64.10;;;;;;4965860;28;20503;-71
2022/06/18 00:47:31;;;;;;;26.17;24.77;;;20.20;63.90;;;;;;4964118;28;20520;-74
2022/06/18 00:50:04;;;;;;;25.90;24.60;;;20.20;63.80;;;;;;4960551;28;20467;-72
2022/06/18 00:52:37;;;;;;;26.10;24.70;;;20.20;63.80;;;;;;4964271;28;20541;-72
2022/06/18 00:55:09;;;;;;;25.70;24.20;;;20.20;63.90;;;;;;4975088;28;20501;-71
2022/06/18 00:57:42;;;;;;;26.23;24.73;;;20.20;64.00;;;;;;4969950;28;20569;-71
2022/06/18 01:00:13;;;;;;;26.13;24.73;;;20.20;63.80;;;;;;4968005;28;20462;-71
2022/06/18 01:02:43;;;;;;;26.30;24.90;;;20.10;64.20;;;;;;4971050;28;20875;-71
2022/06/18 01:05:24;;;;;;;25.53;24.23;;;20.10;64.10;;;;;;4964164;28;21044;-71
2022/06/18 01:07:55;;;;;;;26.37;24.97;;;20.10;64.10;;;;;;4973132;28;20491;-70
2022/06/18 01:10:27;;;;;;;25.77;24.10;;;20.10;64.10;;;;;;4966061;28;20467;-71
2022/06/18 01:12:54;;;;;;;25.73;24.33;;;20.10;64.20;;;;;;4969174;28;20463;-71
2022/06/18 01:15:21;;;;;;;25.30;24.00;;;20.10;64.10;;;;;;4971423;28;20541;-71
2022/06/18 01:17:53;;;;;;;26.70;25.27;;;20.00;64.30;;;;;;4966884;28;20487;-71
2022/06/18 01:20:23;;;;;;;26.30;24.90;;;20.00;64.20;;;;;;4970378;28;20483;-72
2022/06/18 01:23:00;;;;;;;25.37;24.00;;;20.00;64.00;;;;;;4968045;28;20602;-71
2022/06/18 01:25:30;;;;;;;25.33;23.93;;;20.00;63.90;;;;;;4962055;28;20471;-69
2022/06/18 01:27:58;;;;;;;25.77;24.37;;;19.90;64.10;;;;;;4965753;28;20605;-69
2022/06/18 01:30:31;;;;;;;25.67;24.37;;;19.90;64.00;;;;;;4962531;28;20783;-71
2022/06/18 01:32:58;;;;;;;25.40;24.10;;;20.00;63.80;;;;;;4967009;28;20467;-69
2022/06/18 01:35:26;;;;;;;25.97;24.33;;;19.90;63.90;;;;;;4960489;28;20472;-69
2022/06/18 01:37:53;;;;;;;25.17;23.87;;;19.90;64.20;;;;;;4968929;28;20861;-69
2022/06/18 01:40:28;;;;;;;25.70;24.40;;;19.80;64.50;;;;;;4975011;28;20549;-69
2022/06/18 01:43:01;;;;;;;25.00;23.70;;;19.80;64.70;;;;;;4974611;28;20478;-69
2022/06/18 01:45:36;;;;;;;25.63;24.33;;;19.80;64.60;;;;;;4966271;28;20833;-69
2022/06/18 01:48:09;;;;;;;25.60;24.30;;;19.80;64.40;;;;;;4965004;28;20558;-69
2022/06/18 01:50:44;;;;;;;25.80;24.30;;;19.80;64.40;;;;;;4964070;28;20554;-69
2022/06/18 01:53:24;;;;;;;25.90;24.60;;;19.80;64.50;;;;;;4966853;28;20658;-69
2022/06/18 01:55:54;;;;;;;26.10;24.60;;;19.80;64.40;;;;;;4967628;28;21008;-69
2022/06/18 01:58:29;;;;;;;25.60;24.30;;;19.80;64.20;;;;;;4964321;28;20455;-69
2022/06/18 02:00:59;;;;;;;25.17;23.87;;;19.80;64.50;;;;;;4968790;28;20497;-69
2022/06/18 02:03:26;;;;;;;25.80;24.40;;;19.70;64.70;;;;;;4960813;28;20451;-69
2022/06/18 02:05:53;;;;;;;25.10;23.70;;;19.70;64.70;;;;;;4960406;28;20526;-69
2022/06/18 02:08:21;;;;;;;25.80;24.37;;;19.70;64.80;;;;;;4968741;28;20576;-69
2022/06/18 02:10:53;;;;;;;25.50;24.10;;;19.80;64.90;;;;;;4968117;28;20519;-69
2022/06/18 02:13:26;;;;;;;25.63;24.33;;;19.70;65.10;;;;;;4962658;28;20463;-69
2022/06/18 02:15:54;;;;;;;25.87;24.30;;;19.70;65.10;;;;;;4969289;28;20558;-69
2022/06/18 02:18:21;;;;;;;26.40;25.00;;;19.60;65.40;;;;;;4978817;28;20531;-69
2022/06/18 02:20:51;;;;;;;25.40;24.10;;;19.60;65.60;;;;;;4962322;28;20462;-69
2022/06/18 02:23:19;;;;;;;26.40;25.00;;;19.60;65.60;;;;;;4956683;28;20549;-69
2022/06/18 02:25:46;;;;;;;25.93;24.63;;;19.50;65.80;;;;;;4968339;28;20605;-69
2022/06/18 02:28:19;;;;;;;26.40;24.87;;;19.50;66.00;;;;;;4968033;28;20510;-69
2022/06/18 02:30:48;;;;;;;26.90;25.30;;;19.50;65.80;;;;;;4969529;28;20499;-69
2022/06/18 02:33:24;;;;;;;26.40;25.00;;;19.40;65.90;;;;;;4967216;28;20463;-69
2022/06/18 02:35:52;;;;;;;26.57;25.17;;;19.50;65.90;;;;;;4961876;28;20554;-69
2022/06/18 02:38:21;;;;;;;26.37;24.97;;;19.50;65.90;;;;;;4975208;28;20459;-69
2022/06/18 02:40:49;;;;;;;27.47;25.97;;;19.50;65.90;;;;;;4971819;28;20470;-69
2022/06/18 02:43:18;;;;;;;26.10;24.80;;;19.50;65.90;;;;;;4966906;28;20462;-69
2022/06/18 02:45:50;;;;;;;26.90;25.30;;;19.40;66.20;;;;;;4969249;28;20841;-69
2022/06/18 02:48:17;;;;;;;25.90;24.50;;;19.40;66.30;;;;;;4955678;28;20574;-69
2022/06/18 02:50:44;;;;;;;26.20;24.80;;;19.30;66.40;;;;;;4967473;28;20542;-69
2022/06/18 02:53:13;;;;;;;27.00;25.50;;;19.30;66.50;;;;;;4968349;28;20547;-69
2022/06/18 02:55:43;;;;;;;26.17;24.77;;;19.30;66.70;;;;;;4963589;28;20482;-69
2022/06/18 02:58:14;;;;;;;26.23;24.73;;;19.30;66.60;;;;;;4965909;28;20487;-69
2022/06/18 03:00:43;;;;;;;25.70;24.30;;;19.30;66.40;;;;;;4962766;28;20554;-69
2022/06/18 03:03:14;;;;;;;25.73;24.40;;;19.30;66.70;;;;;;4967550;28;20534;-69
2022/06/18 03:05:41;;;;;;;27.17;25.37;;;19.30;66.70;;;;;;4969391;28;20462;-69
2022/06/18 03:08:09;;;;;;;28.13;26.53;;;19.30;66.70;;;;;;4967075;28;20845;-69
2022/06/18 03:13:21;;;;;;;30.07;28.27;;;19.20;66.80;;;;;;4963406;28;20450;-69
2022/06/18 03:15:50;;;;;;;27.53;26.03;;;19.30;66.80;;;;;;4968898;28;20820;-69
2022/06/18 03:18:21;;;;;;;27.67;26.27;;;19.30;66.80;;;;;;4963964;28;20474;-70
2022/06/18 03:21:00;;;;;;;27.03;25.53;;;19.20;66.80;;;;;;4960428;28;21029;-69
2022/06/18 03:23:28;;;;;;;26.60;25.10;;;19.20;67.10;;;;;;4956116;28;20456;-69
2022/06/18 03:25:56;;;;;;;27.20;25.70;;;19.20;66.90;;;;;;4965766;28;22358;-69
2022/06/18 03:28:25;;;;;;;28.00;26.50;;;19.20;67.10;;;;;;4966062;28;20491;-69
2022/06/18 03:30:52;;;;;;;27.93;26.33;;;19.20;67.20;;;;;;4977447;28;20566;-68
2022/06/18 03:33:20;;;;;;;27.10;25.60;;;19.10;67.60;;;;;;4960759;28;20813;-69
2022/06/18 03:35:50;;;;;;;27.30;25.77;;;19.20;67.20;;;;;;4967600;28;20551;-69
2022/06/18 03:38:18;;;;;;;27.23;25.73;;;19.20;67.10;;;;;;4958039;28;20534;-69
2022/06/18 03:40:45;;;;;;;27.07;25.57;;;19.20;67.00;;;;;;4976452;28;20494;-69
2022/06/18 03:43:13;;;;;;;27.50;25.93;;;19.30;66.90;;;;;;4966260;28;20546;-69
2022/06/18 03:45:48;;;;;;;27.67;26.07;;;19.30;66.80;;;;;;4969025;28;20538;-69
2022/06/18 03:48:19;;;;;;;27.47;26.07;;;19.30;66.60;;;;;;4968203;28;20479;-69
2022/06/18 03:50:48;;;;;;;27.77;26.27;;;19.40;66.50;;;;;;4963087;28;20988;-69
2022/06/18 03:53:15;;;;;;;27.00;25.60;;;19.50;66.10;;;;;;4962859;28;20996;-69
2022/06/18 03:55:42;;;;;;;26.23;24.93;;;19.60;65.70;;;;;;4973943;28;20561;-71
2022/06/18 03:58:09;;;;;;;26.73;25.33;;;19.80;65.40;;;;;;4965966;28;20595;-72
2022/06/18 04:00:36;;;;;;;27.23;25.83;;;19.90;65.00;;;;;;4970728;28;20482;-71
2022/06/18 04:03:04;;;;;;;27.43;25.83;;;20.00;64.50;;;;;;4969927;28;20594;-72
2022/06/18 04:05:31;;;;;;;27.50;26.00;;;20.30;64.10;;;;;;4969623;28;20586;-73
2022/06/18 04:08:00;;;;;;;27.93;26.43;;;20.40;63.80;;;;;;4966044;28;20557;-71
2022/06/18 04:10:27;;;;;;;28.40;26.70;;;20.40;63.80;;;;;;4972233;28;20505;-71
2022/06/18 04:12:54;;;;;;;27.80;26.20;;;20.50;63.70;;;;;;4967065;28;20549;-71
2022/06/18 04:15:21;;;;;;;27.90;26.30;;;20.50;63.50;;;;;;4961508;28;20485;-77
2022/06/18 04:17:48;;;;;;;27.90;26.30;;;20.50;63.50;;;;;;4965359;28;20557;-71
2022/06/18 04:20:22;;;;;;;27.57;26.17;;;20.60;63.70;;;;;;4962969;28;20467;-68
2022/06/18 04:22:49;;;;;;;27.57;26.07;;;20.70;63.10;;;;;;4966476;28;20554;-68
2022/06/18 04:25:18;;;;;;;27.70;26.17;;;20.90;62.70;;;;;;4966958;28;20957;-68
2022/06/18 04:27:45;;;;;;;27.30;25.80;;;21.00;62.50;;;;;;4974618;28;20485;-68
2022/06/18 04:30:13;;;;;;;28.03;26.50;;;21.00;62.70;;;;;;4971562;28;21038;-68
2022/06/18 04:32:40;;;;;;;28.00;26.50;;;21.10;62.50;;;;;;4969010;28;20889;-68
2022/06/18 04:35:10;;;;;;;27.73;26.20;;;21.10;62.60;;;;;;4967705;28;20498;-69
2022/06/18 04:37:37;;;;;;;28.57;27.07;;;21.10;63.10;;;;;;4966607;28;20594;-68
2022/06/18 04:40:05;;;;;;;27.60;26.00;;;21.20;63.30;;;;;;4963041;28;20470;-68
2022/06/18 04:42:35;;;;;;;27.77;26.27;;;21.20;63.10;;;;;;4966322;28;20517;-68
2022/06/18 04:45:01;;;;;;;27.77;26.27;;;21.30;63.10;;;;;;4962262;28;20563;-68
2022/06/18 04:47:28;;;;;;;28.33;26.83;;;21.40;63.00;;;;;;4967015;28;20577;-68
2022/06/18 04:49:56;;;;;;;27.93;26.33;;;21.50;62.60;;;;;;4965447;28;20561;-68
2022/06/18 04:52:23;;;;;;;28.80;27.30;;;21.60;62.40;;;;;;4973393;28;20461;-68
2022/06/18 04:54:52;;;;;;;29.70;28.00;;;21.50;63.30;;;;;;4957071;28;20578;-69
2022/06/18 04:57:19;;;;;;;28.53;26.93;;;21.60;62.90;;;;;;4952447;28;20658;-68
2022/06/18 04:59:48;;;;;;;28.40;26.80;;;21.60;63.10;;;;;;4965860;28;20546;-68
2022/06/18 05:02:20;;;;;;;28.53;26.63;;;21.70;63.00;;;;;;4958333;28;20557;-68
2022/06/18 05:04:47;;;;;;;28.20;26.70;;;21.70;63.00;;;;;;4972319;28;20479;-68
2022/06/18 05:07:14;;;;;;;28.20;26.60;;;21.60;63.20;;;;;;4971732;28;20551;-68
2022/06/18 05:09:41;;;;;;;29.70;27.93;;;21.60;63.40;;;;;;4965884;28;20570;-68
2022/06/18 05:12:09;;;;;;;29.70;28.00;;;21.70;63.80;;;;;;4964536;28;20470;-68
2022/06/18 05:14:36;;;;;;;28.70;27.10;;;21.80;63.50;;;;;;4969778;28;20584;-68
2022/06/18 05:17:05;;;;;;;28.57;26.97;;;22.00;63.10;;;;;;4975891;28;20566;-69
2022/06/18 05:19:35;;;;;;;27.73;26.10;;;22.10;62.40;;;;;;4970348;28;20491;-68
2022/06/18 05:22:02;;;;;;;28.00;26.40;;;22.20;62.20;;;;;;4967698;28;20543;-68
2022/06/18 05:24:29;;;;;;;29.50;27.90;;;22.40;61.70;;;;;;4965212;28;20559;-68
2022/06/18 05:26:59;;;;;;;29.77;28.17;;;22.50;61.60;;;;;;4968707;28;20576;-68
2022/06/18 05:29:26;;;;;;;28.10;26.60;;;22.60;61.50;;;;;;4959563;28;20490;-68
2022/06/18 05:31:53;;;;;;;28.20;26.60;;;22.70;61.70;;;;;;4975126;28;21043;-69
2022/06/18 05:34:22;;;;;;;29.70;28.00;;;22.90;61.20;;;;;;4966883;28;20516;-68
2022/06/18 05:36:49;;;;;;;31.53;29.63;;;23.00;60.80;;;;;;4963309;28;20537;-69
2022/06/18 05:39:21;;;;;;;28.03;26.63;;;23.20;60.10;;;;;;4967851;28;20459;-68
2022/06/18 05:41:47;;;;;;;28.60;27.10;;;23.30;59.90;;;;;;4970351;28;20561;-69
2022/06/18 05:44:14;;;;;;;29.30;27.80;;;23.50;59.80;;;;;;4964589;28;20892;-69
2022/06/18 05:46:42;;;;;;;30.93;29.13;;;23.60;59.30;;;;;;4968238;28;20485;-69
2022/06/18 05:49:10;;;;;;;29.63;27.90;;;23.60;59.40;;;;;;4969598;28;20490;-73
2022/06/18 05:51:38;;;;;;;28.23;26.63;;;23.70;59.50;;;;;;4967841;28;20461;-71
2022/06/18 05:54:05;;;;;;;28.90;27.30;;;23.90;59.70;;;;;;4966990;28;20577;-71
2022/06/18 05:56:32;;;;;;;30.57;28.63;;;24.00;59.10;;;;;;4974347;28;21029;-71
2022/06/18 05:58:59;;;;;;;31.50;29.80;;;24.10;58.80;;;;;;4972306;28;20602;-71
2022/06/18 06:01:26;;;;;;;30.20;28.60;;;24.20;59.20;;;;;;4966651;28;20461;-71
2022/06/18 06:03:53;;;;;;;30.87;29.17;;;24.30;58.60;;;;;;4966546;28;20462;-71
2022/06/18 06:06:20;;;;;;;29.00;27.50;;;24.40;58.30;;;;;;4969933;28;20576;-71
2022/06/18 06:08:48;;;;;;;29.77;28.17;;;24.50;58.30;;;;;;4963966;28;20459;-68
2022/06/18 06:11:29;;;;;;;31.10;29.30;;;24.60;58.20;;;;;;4969189;28;20648;-69
2022/06/18 06:13:57;;;;;;;30.40;28.60;;;24.70;57.80;;;;;;4960977;28;20481;-69
2022/06/18 06:16:24;;;;;;;30.33;28.47;;;24.90;57.60;;;;;;4969511;28;20487;-69
2022/06/18 06:18:51;;;;;;;32.57;30.57;;;25.00;57.40;;;;;;4968170;28;20457;-68
2022/06/18 06:21:18;;;;;;;30.00;28.37;;;25.00;57.30;;;;;;4958485;28;20473;-69
2022/06/18 06:23:46;;;;;;;29.60;27.80;;;25.20;56.90;;;;;;4952862;28;20546;-70
2022/06/18 06:26:19;;;;;;;31.20;29.30;;;25.20;56.70;;;;;;4954814;28;20676;-69
2022/06/18 06:28:46;;;;;;;31.50;29.60;;;25.30;56.80;;;;;;4959443;28;20467;-70
2022/06/18 06:31:13;;;;;;;30.47;28.17;;;25.40;56.20;;;;;;4968689;28;20960;-69
2022/06/18 06:33:40;;;;;;;29.93;28.07;;;25.40;56.50;;;;;;4970451;28;20558;-70
2022/06/18 06:36:09;;;;;;;30.00;28.23;;;25.50;56.30;;;;;;4968937;28;20462;-70
2022/06/18 06:38:37;;;;;;;30.73;28.83;;;25.50;56.40;;;;;;4965176;28;20487;-70
2022/06/18 06:41:06;;;;;;;30.80;29.00;;;25.70;56.10;;;;;;4961337;28;20503;-70
2022/06/18 06:43:35;;;;;;;31.27;29.27;;;25.90;55.70;;;;;;4968157;28;20581;-71
2022/06/18 06:46:02;;;;;;;31.00;29.20;;;26.00;54.90;;;;;;4965258;28;20456;-71
2022/06/18 06:48:29;;;;;;;30.70;28.70;;;26.20;54.30;;;;;;4973507;28;20459;-70
2022/06/18 06:50:56;;;;;;;31.10;29.20;;;26.30;54.00;;;;;;4965793;28;20482;-71
2022/06/18 06:53:23;;;;;;;33.47;31.37;;;26.50;53.70;;;;;;4971629;28;20481;-71
2022/06/18 06:58:36;;;;;;;30.83;28.80;;;26.70;53.10;;;;;;4965050;28;20518;-72
2022/06/18 07:01:03;;;;;;;30.50;28.40;;;26.80;52.60;;;;;;4958440;28;20467;-71
2022/06/18 07:03:33;;;;;;;30.23;28.53;;;27.00;52.50;;;;;;4956040;28;20462;-71
2022/06/18 07:06:02;;;;;;;31.13;29.03;;;27.00;52.30;;;;;;4972801;28;20548;-71
2022/06/18 07:08:29;;;;;;;30.80;28.83;;;27.20;52.30;;;;;;4967878;28;20578;-73
2022/06/18 07:10:56;;;;;;;30.57;28.67;;;27.30;52.10;;;;;;4967841;28;20565;-75
2022/06/18 07:13:23;;;;;;;31.70;29.70;;;27.50;52.00;;;;;;4968360;28;21262;-74
2022/06/18 07:15:53;;;;;;;31.40;29.40;;;27.60;51.50;;;;;;4957097;28;20491;-74
2022/06/18 07:18:23;;;;;;;29.83;28.03;;;27.70;51.30;;;;;;4966862;28;20498;-73
2022/06/18 07:20:50;;;;;;;30.27;28.57;;;27.70;51.90;;;;;;4961938;28;20466;-72
2022/06/18 07:23:17;;;;;;;30.60;28.87;;;27.60;50.70;;;;;;4968819;28;21517;-71
2022/06/18 07:25:44;;;;;;;29.63;28.03;;;27.80;50.70;;;;;;4964822;28;20473;-69
2022/06/18 07:28:11;;;;;;;28.17;26.57;;;27.90;50.00;;;;;;4977335;28;20516;-69
2022/06/18 07:30:39;;;;;;;30.20;28.30;;;28.00;48.70;;;;;;4967250;28;20467;-69
2022/06/18 07:33:10;;;;;;;29.70;28.00;;;28.10;48.50;;;;;;4968534;28;20960;-69
2022/06/18 07:35:39;;;;;;;31.70;29.77;;;28.20;48.40;;;;;;4966134;28;20458;-69
2022/06/18 07:38:06;;;;;;;29.50;27.80;;;28.40;47.90;;;;;;4969509;28;20505;-69
2022/06/18 07:40:37;;;;;;;30.27;28.53;;;28.50;48.30;;;;;;4968743;28;20547;-69
2022/06/18 07:43:08;;;;;;;32.03;30.13;;;28.50;48.10;;;;;;4967138;28;20474;-69
2022/06/18 07:45:35;;;;;;;31.17;29.33;;;28.60;47.20;;;;;;4966305;28;20469;-69
2022/06/18 07:51:26;;;;;;;29.97;28.17;;;28.80;46.20;;;;;;4965488;28;20937;-69
2022/06/18 07:53:53;;;;;;;28.70;26.83;;;28.80;45.40;;;;;;4962037;28;20486;-69
2022/06/18 07:56:20;;;;;;;30.90;28.70;;;28.90;45.50;;;;;;4966932;28;20484;-70
2022/06/18 07:58:47;;;;;;;28.27;26.67;;;29.00;45.10;;;;;;4969038;28;20459;-70
2022/06/18 08:01:14;;;;;;;29.57;27.80;;;29.10;43.80;;;;;;4963285;28;20461;-69
2022/06/18 08:03:41;;;;;;;30.00;28.20;;;29.20;44.10;;;;;;4963990;28;21186;-69
2022/06/18 08:06:09;;;;;;;30.20;28.40;;;29.30;44.10;;;;;;4963859;28;20570;-70
2022/06/18 08:08:38;;;;;;;30.53;28.50;;;29.40;44.40;;;;;;4965785;28;20464;-69
2022/06/18 08:11:08;;;;;;;30.03;28.30;;;29.50;44.90;;;;;;4973457;28;20489;-70
2022/06/18 08:13:35;;;;;;;29.70;28.10;;;29.60;45.20;;;;;;4964530;28;20823;-70
2022/06/18 08:16:02;;;;;;;32.30;30.40;;;29.70;44.70;;;;;;4977381;28;20832;-69
2022/06/18 08:18:30;;;;;;;29.43;27.73;;;29.70;44.10;;;;;;4961599;28;20558;-70
2022/06/18 08:20:58;;;;;;;31.17;28.87;;;29.80;43.80;;;;;;4967711;28;20467;-69
2022/06/18 08:23:25;;;;;;;30.50;28.50;;;29.90;43.30;;;;;;4965446;28;20494;-70
2022/06/18 08:25:53;;;;;;;28.33;26.80;;;30.00;43.30;;;;;;4969665;28;21000;-69
2022/06/18 08:28:20;;;;;;;29.47;27.83;;;30.00;42.00;;;;;;4979780;28;20550;-70
2022/06/18 08:30:47;;;;;;;31.13;28.93;;;30.10;42.10;;;;;;4978089;28;20487;-70
2022/06/18 08:33:15;;;;;;;30.23;28.13;;;30.10;41.40;;;;;;4970103;28;20667;-70
2022/06/18 08:35:43;;;;;;;28.90;27.10;;;30.20;41.80;;;;;;4968715;28;20459;-72
2022/06/18 08:38:10;;;;;;;28.00;26.10;;;30.20;42.60;;;;;;4972626;28;20568;-72
2022/06/18 08:40:52;;;;;;;28.73;27.03;;;30.20;43.00;;;;;;4970830;28;20505;-72
2022/06/18 08:43:43;;;;;;;30.50;28.57;;;30.40;43.10;;;;;;4976429;28;20557;-71
2022/06/18 08:46:20;;;;;;;30.90;29.00;;;30.50;42.60;;;;;;4979243;28;20487;-72
2022/06/18 08:49:07;;;;;;;29.23;27.43;;;30.60;40.80;;;;;;4967996;28;20458;-72
2022/06/18 08:51:43;;;;;;;29.90;28.10;;;30.70;40.70;;;;;;4967353;28;20479;-70
2022/06/18 08:54:35;;;;;;;28.27;26.47;;;30.60;40.80;;;;;;4965907;28;20466;-70
2022/06/18 08:57:07;;;;;;;29.27;27.67;;;30.50;40.80;;;;;;4962117;28;20935;-68
2022/06/18 08:59:45;;;;;;;30.50;28.70;;;30.20;40.90;;;;;;4968620;28;20549;-69
2022/06/18 09:02:22;;;;;;;29.63;27.83;;;30.10;41.50;;;;;;4966145;28;20463;-68
2022/06/18 09:05:01;;;;;;;29.00;27.20;;;30.20;41.80;;;;;;4970678;28;20470;-69
2022/06/18 09:07:55;;;;;;;29.33;27.53;;;30.50;41.50;;;;;;4963123;28;20493;-69
2022/06/18 09:10:32;;;;;;;29.37;27.67;;;30.70;40.50;;;;;;4965158;28;20559;-69
2022/06/18 09:13:03;;;;;;;31.70;29.70;;;30.90;40.40;;;;;;4960592;28;20477;-69
2022/06/18 09:15:36;;;;;;;28.90;27.30;;;31.00;39.50;;;;;;4967640;28;20458;-69
2022/06/18 09:18:08;;;;;;;29.83;28.13;;;30.90;39.70;;;;;;4962534;28;20573;-69
2022/06/18 09:20:40;;;;;;;27.97;26.27;;;31.00;40.40;;;;;;4965661;28;20486;-69
2022/06/18 09:23:15;;;;;;;29.50;27.50;;;31.10;40.20;;;;;;4970527;28;20479;-69
2022/06/18 09:25:45;;;;;;;29.43;27.40;;;31.00;40.50;;;;;;4973852;28;20486;-69
2022/06/18 09:28:17;;;;;;;27.80;26.10;;;31.10;41.30;;;;;;4969576;28;20501;-69
2022/06/18 09:30:50;;;;;;;30.70;28.70;;;31.20;42.00;;;;;;4969046;28;20530;-69
2022/06/18 09:33:21;;;;;;;30.13;28.27;;;31.30;41.90;;;;;;4965027;28;20477;-69
2022/06/18 09:35:52;;;;;;;29.83;28.03;;;31.50;40.70;;;;;;4961024;28;20542;-69
2022/06/18 09:38:22;;;;;;;28.80;27.17;;;31.60;40.00;;;;;;4970963;28;20892;-69
2022/06/18 09:40:52;;;;;;;29.80;28.10;;;31.70;39.80;;;;;;4971554;28;20487;-70
2022/06/18 09:43:24;;;;;;;31.00;29.10;;;31.70;39.90;;;;;;4968237;28;20455;-69
2022/06/18 09:45:56;;;;;;;28.83;26.93;;;31.80;39.80;;;;;;4969893;28;20538;-69
2022/06/18 09:48:24;;;;;;;30.00;28.30;;;31.90;39.30;;;;;;4967313;28;20869;-69
2022/06/18 09:50:53;;;;;;;29.50;27.80;;;32.00;38.70;;;;;;4960050;28;20869;-69
2022/06/18 09:53:23;;;;;;;28.10;26.30;;;32.10;37.50;;;;;;4965926;28;20455;-69
2022/06/18 09:55:53;;;;;;;29.90;28.00;;;32.20;37.00;;;;;;4968200;28;20473;-68
2022/06/18 09:58:24;;;;;;;27.23;25.73;;;32.20;36.80;;;;;;4969415;28;20948;-69
2022/06/18 10:00:54;;;;;;;27.40;25.50;;;32.20;36.70;;;;;;4964201;28;20464;-69
2022/06/18 10:09:00;;;;;;;27.67;26.07;;;32.30;35.30;;;;;;4970811;28;20526;-69
2022/06/18 10:11:30;;;;;;;27.80;26.20;;;32.30;36.10;;;;;;4963151;28;20488;-73
2022/06/18 10:14:03;;;;;;;28.07;26.17;;;32.40;35.80;;;;;;4964137;28;20965;-69
2022/06/18 10:16:57;;;;;;;27.37;25.87;;;32.50;34.60;;;;;;4961439;28;20470;-69
2022/06/18 10:19:32;;;;;;;28.90;27.20;;;32.60;33.80;;;;;;4965260;28;20490;-69
2022/06/18 10:22:13;;;;;;;28.07;26.37;;;32.60;34.70;;;;;;4962423;28;20463;-69
2022/06/18 10:24:53;;;;;;;30.30;28.50;;;32.70;34.10;;;;;;4960452;28;20462;-69
2022/06/18 10:27:27;;;;;;;28.83;26.90;;;32.80;33.50;;;;;;4962612;28;20478;-69
2022/06/18 10:30:09;;;;;;;28.10;26.40;;;32.80;33.60;;;;;;4965210;28;20575;-68
2022/06/18 10:32:52;;;;;;;30.33;28.60;;;32.90;32.30;;;;;;4965978;28;20829;-69
2022/06/18 10:35:38;;;;;;;28.97;27.27;;;32.90;32.30;;;;;;4963651;28;21047;-69
2022/06/18 10:38:25;;;;;;;27.97;26.37;;;33.00;32.50;;;;;;4958651;28;20498;-69
2022/06/18 10:41:02;;;;;;;30.23;28.40;;;33.10;33.30;;;;;;4971205;28;20879;-69
2022/06/18 10:43:43;;;;;;;29.13;27.47;;;33.10;34.40;;;;;;4970647;28;20931;-69
2022/06/18 10:46:14;;;;;;;29.23;27.37;;;33.30;34.50;;;;;;4974579;28;20590;-69
2022/06/18 10:48:47;;;;;;;30.83;29.00;;;33.30;34.50;;;;;;4966645;28;20461;-69
2022/06/18 10:51:17;;;;;;;28.30;26.70;;;33.30;34.40;;;;;;4969923;28;20482;-68
2022/06/18 10:53:48;;;;;;;29.00;27.30;;;33.30;34.70;;;;;;4965972;28;20474;-69
2022/06/18 10:56:17;;;;;;;28.40;26.60;;;33.30;34.30;;;;;;4968171;28;20498;-70
2022/06/18 10:58:48;;;;;;;28.83;26.80;;;33.50;33.50;;;;;;4966927;28;20463;-69
2022/06/18 11:01:17;;;;;;;28.80;26.90;;;33.50;34.10;;;;;;4976534;28;20532;-70
2022/06/18 11:03:56;;;;;;;29.20;27.50;;;33.50;34.30;;;;;;4966797;28;20541;-70
2022/06/18 11:06:23;;;;;;;28.40;26.50;;;33.50;34.70;;;;;;4964918;28;21005;-69
2022/06/18 11:08:54;;;;;;;27.97;26.27;;;33.50;34.50;;;;;;4959270;28;20464;-69
2022/06/18 11:11:24;;;;;;;28.97;27.23;;;33.60;34.50;;;;;;4975014;28;20489;-69
2022/06/18 11:13:52;;;;;;;28.30;26.40;;;33.70;33.90;;;;;;4973577;28;20935;-68
2022/06/18 11:16:21;;;;;;;27.47;25.67;;;33.70;34.20;;;;;;4975507;28;20515;-68
2022/06/18 11:18:53;;;;;;;34.23;32.20;;;33.90;34.00;;;;;;4965463;28;20469;-69
2022/06/18 11:21:35;;;;;;;27.50;25.90;;;33.90;34.00;;;;;;4970107;28;21240;-69
2022/06/18 11:24:06;;;;;;;29.27;27.20;;;34.00;33.50;;;;;;4969875;28;20463;-69
2022/06/18 11:26:33;;;;;;;28.90;27.20;;;34.10;34.10;;;;;;4967641;28;20541;-69
2022/06/18 11:29:04;;;;;;;29.57;27.63;;;34.20;34.40;;;;;;4969558;28;20467;-68
2022/06/18 11:31:35;;;;;;;29.53;27.50;;;34.10;34.50;;;;;;4977523;28;20478;-69
2022/06/18 11:34:06;;;;;;;28.00;26.23;;;34.10;35.00;;;;;;4969331;28;20546;-69
2022/06/18 11:36:46;;;;;;;29.30;27.30;;;34.30;35.20;;;;;;4968962;28;20574;-71
2022/06/18 11:39:37;;;;;;;30.73;28.60;;;34.50;34.90;;;;;;4964373;28;20462;-71
2022/06/18 11:42:19;;;;;;;29.70;27.80;;;34.60;35.50;;;;;;4970373;28;20463;-71
2022/06/18 11:44:52;;;;;;;28.23;26.53;;;34.50;35.00;;;;;;4969510;28;20950;-72
2022/06/18 11:47:23;;;;;;;29.40;27.60;;;34.60;35.40;;;;;;4968131;28;20495;-72
2022/06/18 11:49:58;;;;;;;32.77;30.60;;;34.70;34.40;;;;;;4968585;28;20562;-71
2022/06/18 11:52:34;;;;;;;28.03;26.03;;;34.70;34.40;;;;;;4969687;28;20586;-71
2022/06/18 11:55:11;;;;;;;27.87;26.17;;;34.70;33.80;;;;;;4968264;28;20557;-71
2022/06/18 11:57:42;;;;;;;29.03;27.17;;;34.80;33.80;;;;;;4965075;28;20477;-71
2022/06/18 12:00:17;;;;;;;29.50;27.30;;;34.90;33.50;;;;;;4970131;28;20478;-71
2022/06/18 12:02:52;;;;;;;29.73;27.70;;;35.00;33.50;;;;;;4972448;28;20546;-71
2022/06/18 12:05:26;;;;;;;32.20;29.60;;;35.00;33.10;;;;;;4971783;28;20762;-71
2022/06/18 12:07:57;;;;;;;28.87;26.90;;;34.90;33.20;;;;;;4972443;28;20481;-72
2022/06/18 12:10:37;;;;;;;31.10;28.70;;;35.00;32.90;;;;;;4972587;28;20458;-71
2022/06/18 12:13:14;;;;;;;29.77;27.60;;;35.00;32.90;;;;;;4973672;28;20467;-72
2022/06/18 12:15:47;;;;;;;28.83;26.70;;;35.10;32.50;;;;;;4960486;28;20494;-71
2022/06/18 12:18:24;;;;;;;28.57;26.83;;;35.20;32.70;;;;;;4960878;28;20534;-71
2022/06/18 12:21:04;;;;;;;30.63;28.70;;;35.30;32.70;;;;;;4971318;28;20451;-69
2022/06/18 12:23:42;;;;;;;28.17;26.17;;;35.40;32.20;;;;;;4972714;28;20497;-72
2022/06/18 12:26:14;;;;;;;31.27;28.90;;;35.50;31.90;;;;;;4961662;28;21011;-69
2022/06/18 12:28:53;;;;;;;29.10;27.20;;;35.50;32.20;;;;;;4970326;28;20565;-69
2022/06/18 12:31:27;;;;;;;29.60;27.30;;;35.60;32.70;;;;;;4977114;28;20566;-69
2022/06/18 12:34:01;;;;;;;29.10;26.57;;;35.70;33.00;;;;;;4971909;28;20499;-69
2022/06/18 12:36:38;;;;;;;28.90;26.43;;;35.80;33.00;;;;;;4963622;28;20576;-69
2022/06/18 12:39:15;;;;;;;30.10;27.80;;;35.90;32.80;;;;;;4967600;28;20458;-69
2022/06/18 12:41:51;;;;;;;31.17;28.80;;;36.00;32.80;;;;;;4970317;28;20554;-71
2022/06/18 12:44:30;;;;;;;32.20;29.27;;;36.00;32.50;;;;;;4965928;28;20549;-70
2022/06/18 12:47:05;;;;;;;31.70;28.50;;;36.10;33.20;;;;;;4970933;28;20585;-71
2022/06/18 12:49:38;;;;;;;32.80;30.30;;;36.00;32.80;;;;;;4962858;28;20467;-69
2022/06/18 12:52:18;;;;;;;30.47;27.83;;;36.20;33.60;;;;;;4969684;28;20473;-69
2022/06/18 12:55:02;;;;;;;31.50;28.83;;;36.20;33.20;;;;;;4963864;28;20501;-70
2022/06/18 12:57:37;;;;;;;32.90;29.60;;;36.20;33.00;;;;;;4968058;28;20567;-70
2022/06/18 13:00:10;;;;;;;33.13;30.13;;;36.20;33.50;;;;;;4969076;28;20466;-69
2022/06/18 13:02:58;;;;;;;31.67;29.00;;;36.50;33.20;;;;;;4969380;28;20447;-70
2022/06/18 13:05:42;;;;;;;30.37;27.90;;;36.50;33.30;;;;;;4969186;28;20914;-71